createdAt,value
2022-12-31T00:04:52.963Z,-1.03
2022-12-31T00:10:01.401Z,-1.09
2022-12-31T00:15:11.302Z,-1.09
2022-12-31T00:20:19.991Z,-1.10
2022-12-31T00:25:27.870Z,-1.15
2022-12-31T00:30:38.140Z,-1.10
2022-12-31T00:35:46.025Z,-1.04
2022-12-31T00:40:57.480Z,-1.00
2022-12-31T00:46:06.073Z,-1.05
2022-12-31T00:51:15.925Z,-1.10
2022-12-31T01:02:00.349Z,-1.04
2022-12-31T01:07:08.261Z,-1.05
2022-12-31T01:12:15.918Z,-1.09
2022-12-31T01:17:24.433Z,-1.07
2022-12-31T01:22:31.889Z,-1.08
2022-12-31T01:27:39.478Z,-1.14
2022-12-31T01:32:46.903Z,-1.25
2022-12-31T01:37:55.984Z,-1.25
2022-12-31T01:43:03.921Z,-1.26
2022-12-31T01:48:16.153Z,-1.23
2022-12-31T01:53:25.228Z,-1.11
2022-12-31T01:58:38.629Z,-1.07
2022-12-31T02:03:46.407Z,-1.03
2022-12-31T02:08:54.800Z,-1.06
2022-12-31T02:14:06.005Z,-1.07
2022-12-31T02:19:42.001Z,-1.03
2022-12-31T02:25:28.244Z,-0.93
2022-12-31T02:30:36.652Z,-0.90
2022-12-31T02:35:52.078Z,-0.79
2022-12-31T02:41:02.375Z,-0.66
2022-12-31T02:46:21.960Z,-0.50
2022-12-31T02:51:42.231Z,-0.44
2022-12-31T02:57:00.984Z,-0.47
2022-12-31T03:02:16.530Z,-0.40
2022-12-31T03:07:30.451Z,-0.30
2022-12-31T03:12:47.850Z,-0.28
2022-12-31T03:18:03.051Z,-0.28
2022-12-31T03:23:13.044Z,-0.23
2022-12-31T03:28:23.175Z,-0.21
2022-12-31T03:33:35.853Z,-0.20
2022-12-31T03:38:44.758Z,-0.20
2022-12-31T03:43:55.891Z,-0.14
2022-12-31T03:49:03.688Z,-0.10
2022-12-31T03:54:12.121Z,-0.08
2022-12-31T03:59:19.687Z,-0.07
2022-12-31T04:04:27.962Z,-0.09
2022-12-31T04:09:36.077Z,-0.07
2022-12-31T04:14:43.989Z,0.05
2022-12-31T04:19:52.011Z,0.11
2022-12-31T04:25:00.781Z,0.13
2022-12-31T04:30:10.060Z,0.15
2022-12-31T04:35:17.980Z,0.19
2022-12-31T04:40:26.195Z,0.27
2022-12-31T04:45:34.017Z,0.35
2022-12-31T04:50:41.772Z,0.42
2022-12-31T04:55:47.996Z,0.47
2022-12-31T05:02:09.915Z,0.45
2022-12-31T05:07:20.841Z,0.25
2022-12-31T05:12:29.446Z,0.15
2022-12-31T05:17:37.423Z,0.11
2022-12-31T05:22:44.944Z,-0.00
2022-12-31T05:27:52.436Z,-0.05
2022-12-31T05:33:00.467Z,-0.06
2022-12-31T05:38:08.067Z,-0.14
2022-12-31T05:43:15.792Z,-0.23
2022-12-31T05:48:23.900Z,-0.26
2022-12-31T05:53:31.815Z,-0.21
2022-12-31T05:58:39.545Z,-0.10
2022-12-31T06:07:02.817Z,0.05
2022-12-31T06:12:11.365Z,0.10
2022-12-31T06:17:19.419Z,0.11
2022-12-31T06:22:27.668Z,0.07
2022-12-31T06:27:34.976Z,0.10
2022-12-31T06:32:40.957Z,0.19
2022-12-31T06:37:48.701Z,0.22
2022-12-31T06:43:00.203Z,0.23
2022-12-31T06:48:09.629Z,0.20
2022-12-31T06:53:16.771Z,0.13
2022-12-31T07:02:22.726Z,0.15
2022-12-31T07:07:36.292Z,0.11
2022-12-31T07:12:58.958Z,0.15
2022-12-31T07:18:13.273Z,0.22
2022-12-31T07:23:21.807Z,0.30
2022-12-31T07:28:42.980Z,0.42
2022-12-31T07:34:01.642Z,0.50
2022-12-31T07:39:12.748Z,0.55
2022-12-31T07:44:32.616Z,0.57
2022-12-31T07:49:44.766Z,0.66
2022-12-31T07:54:52.915Z,0.82
2022-12-31T08:00:10.647Z,0.96
2022-12-31T08:05:21.818Z,1.08
2022-12-31T08:10:38.965Z,1.20
2022-12-31T08:15:48.643Z,1.47
2022-12-31T08:21:10.725Z,1.82
2022-12-31T08:26:32.814Z,2.19
2022-12-31T08:31:49.903Z,2.60
2022-12-31T08:37:03.263Z,2.95
2022-12-31T08:42:22.257Z,3.21
2022-12-31T08:47:41.951Z,3.37
2022-12-31T08:52:52.314Z,3.68
2022-12-31T08:58:17.037Z,4.03
2022-12-31T09:03:37.851Z,4.41
2022-12-31T09:08:52.927Z,4.74
2022-12-31T09:14:21.445Z,5.00
2022-12-31T09:19:30.958Z,5.23
2022-12-31T09:24:43.140Z,5.41
2022-12-31T09:30:00.977Z,5.65
2022-12-31T09:35:14.017Z,5.90
2022-12-31T09:41:27.228Z,6.17
2022-12-31T09:47:03.468Z,6.39
2022-12-31T09:52:28.256Z,6.52
2022-12-31T09:57:42.864Z,6.65
2022-12-31T10:03:18.199Z,6.86
2022-12-31T10:08:45.449Z,7.13
2022-12-31T10:14:08.218Z,7.44
2022-12-31T10:20:02.603Z,7.76
2022-12-31T10:25:39.712Z,8.11
2022-12-31T10:30:59.876Z,8.44
2022-12-31T10:36:17.973Z,8.70
2022-12-31T10:42:03.467Z,8.94
2022-12-31T10:47:42.816Z,9.19
2022-12-31T10:53:32.037Z,9.52
2022-12-31T10:59:06.557Z,9.88
2022-12-31T11:04:46.826Z,10.14
2022-12-31T11:10:38.049Z,10.38
2022-12-31T11:16:12.425Z,10.62
2022-12-31T11:21:54.614Z,10.86
2022-12-31T11:27:15.796Z,11.05
2022-12-31T11:32:35.309Z,11.15
2022-12-31T11:37:48.980Z,11.24
2022-12-31T11:43:01.901Z,11.33
2022-12-31T11:48:30.253Z,11.38
2022-12-31T11:54:10.555Z,11.46
2022-12-31T11:59:19.835Z,11.55
2022-12-31T12:04:29.733Z,11.57
2022-12-31T12:09:37.902Z,11.56
2022-12-31T12:14:47.384Z,11.54
2022-12-31T12:20:02.474Z,11.49
2022-12-31T12:25:20.895Z,11.46
2022-12-31T12:30:41.663Z,11.45
2022-12-31T12:35:50.294Z,11.45
2022-12-31T12:41:01.583Z,11.46
2022-12-31T12:46:21.201Z,11.44
2022-12-31T12:51:44.324Z,11.44
2022-12-31T12:57:01.374Z,11.41
2022-12-31T13:02:16.341Z,11.37
2022-12-31T13:07:39.569Z,11.35
2022-12-31T13:18:36.840Z,11.33
2022-12-31T13:23:53.408Z,11.29
2022-12-31T13:29:06.853Z,11.24
2022-12-31T13:34:21.180Z,11.18
2022-12-31T13:39:37.682Z,11.14
2022-12-31T13:44:51.789Z,11.11
2022-12-31T13:50:16.357Z,11.05
2022-12-31T13:55:31.381Z,11.00
2022-12-31T14:00:46.383Z,10.94
2022-12-31T14:06:02.681Z,10.87
2022-12-31T14:11:20.251Z,10.82
2022-12-31T14:16:37.572Z,10.75
2022-12-31T14:21:49.445Z,10.68
2022-12-31T14:27:00.406Z,10.61
2022-12-31T14:32:34.221Z,10.56
2022-12-31T14:37:50.966Z,10.53
2022-12-31T14:43:15.367Z,10.49
2022-12-31T14:48:34.006Z,10.42
2022-12-31T14:53:55.455Z,10.33
2022-12-31T14:59:04.318Z,10.20
2022-12-31T15:04:17.111Z,10.08
2022-12-31T15:09:42.553Z,9.95
2022-12-31T15:15:17.496Z,9.86
2022-12-31T15:20:47.525Z,9.75
2022-12-31T15:26:00.252Z,9.63
2022-12-31T15:31:19.059Z,9.49
2022-12-31T15:36:31.781Z,9.34
2022-12-31T15:42:18.546Z,9.22
2022-12-31T15:47:29.108Z,9.07
2022-12-31T15:52:42.612Z,8.96
2022-12-31T15:57:51.284Z,8.86
2022-12-31T16:02:59.534Z,8.78
2022-12-31T16:08:08.347Z,8.72
2022-12-31T16:13:23.235Z,8.60
2022-12-31T16:18:41.392Z,8.41
2022-12-31T16:23:56.025Z,8.20
2022-12-31T16:29:09.847Z,8.04
2022-12-31T16:34:22.299Z,7.89
2022-12-31T16:39:33.522Z,7.76
2022-12-31T16:44:43.064Z,7.65
2022-12-31T16:49:57.804Z,7.58
2022-12-31T16:55:18.660Z,7.53
2022-12-31T17:00:28.833Z,7.41
2022-12-31T17:05:54.755Z,7.35
2022-12-31T17:11:23.176Z,7.22
2022-12-31T17:16:34.914Z,7.06
2022-12-31T17:31:59.861Z,6.94
2022-12-31T17:37:20.025Z,6.86
2022-12-31T17:42:33.097Z,6.79
2022-12-31T17:47:43.169Z,6.79
2022-12-31T17:52:55.470Z,6.82
2022-12-31T17:58:07.259Z,6.86
2022-12-31T18:03:15.205Z,6.89
2022-12-31T18:08:23.511Z,6.95
2022-12-31T18:13:33.373Z,7.02
2022-12-31T18:18:44.876Z,7.05
2022-12-31T18:29:04.476Z,6.99
2022-12-31T18:34:17.002Z,6.84
2022-12-31T18:39:26.013Z,6.71
2022-12-31T18:44:34.081Z,6.60
2022-12-31T18:49:43.833Z,6.57
2022-12-31T18:54:52.793Z,6.61
2022-12-31T19:00:01.522Z,6.63
2022-12-31T19:05:24.657Z,6.62
2022-12-31T19:10:33.847Z,6.69
2022-12-31T19:15:46.668Z,6.67
2022-12-31T19:20:54.784Z,6.71
2022-12-31T19:26:02.231Z,6.66
2022-12-31T19:31:09.576Z,6.66
2022-12-31T19:36:20.505Z,6.86
2022-12-31T19:41:29.152Z,6.90
2022-12-31T19:46:36.374Z,6.74
2022-12-31T19:51:43.959Z,6.56
2022-12-31T20:02:08.710Z,6.47
2022-12-31T20:07:26.820Z,6.41
2022-12-31T20:12:40.688Z,6.55
2022-12-31T20:17:54.288Z,6.61
2022-12-31T20:23:02.049Z,6.58
2022-12-31T20:28:10.494Z,6.61
2022-12-31T20:33:19.386Z,6.64
2022-12-31T20:38:29.765Z,6.63
2022-12-31T20:43:37.996Z,6.56
2022-12-31T20:48:46.615Z,6.46
2022-12-31T20:54:01.321Z,6.37
2022-12-31T20:59:10.803Z,6.28
2022-12-31T21:04:18.910Z,6.20
2022-12-31T21:09:27.845Z,6.13
2022-12-31T21:14:39.836Z,5.98
2022-12-31T21:19:50.852Z,5.81
2022-12-31T21:25:01.318Z,5.66
2022-12-31T21:30:19.334Z,5.58
2022-12-31T21:35:51.672Z,5.53
2022-12-31T21:41:02.457Z,5.45
2022-12-31T21:46:11.117Z,5.37
2022-12-31T21:51:19.411Z,5.38
2022-12-31T21:56:27.358Z,5.47
2022-12-31T22:01:52.377Z,5.43
2022-12-31T22:07:01.178Z,5.38
2022-12-31T22:12:09.623Z,5.37
2022-12-31T22:17:17.232Z,5.37
2022-12-31T22:22:25.867Z,5.43
2022-12-31T22:27:33.566Z,5.41
2022-12-31T22:32:41.404Z,5.39
2022-12-31T22:37:59.632Z,5.38
2022-12-31T22:43:11.256Z,5.45
2022-12-31T22:48:18.846Z,5.51
2022-12-31T22:53:26.888Z,5.47
2022-12-31T22:58:34.474Z,5.48
2022-12-31T23:03:42.589Z,5.52
2022-12-31T23:09:04.468Z,5.52
2022-12-31T23:14:35.798Z,5.72
2022-12-31T23:20:01.493Z,5.96
2022-12-31T23:25:11.788Z,6.14
2022-12-31T23:30:24.651Z,6.36
2022-12-31T23:35:32.669Z,6.46
2022-12-31T23:40:40.557Z,6.54
2022-12-31T23:45:51.908Z,6.75
2022-12-31T23:51:11.049Z,6.99
2022-12-31T23:56:23.951Z,7.06
